FCBB/BZV METAR and TAF weather

Enter ICAO airport designator
Station Type Date Time Source
FCBB METAR 2020/03/29 19:00 UTC NOAA

FCBB 291900Z 11005KT 080V140 7000 -TSRA FEW020 FEW027CB 26/22 Q1010 NOSIG


Station Type Date Time Source
FCBB Decoded METAR 2020/03/29 19:00 UTC NOAA

Brazzaville / Maya-Maya, Congo, Republic of the (FCBB) 04-15S 015-15E 316M
Mar 29, 2020 - 03:00 PM EDT / 2020.03.29 1900 UTC
Wind: from the ESE (110 degrees) at 6 MPH (5 KT) (direction variable):0
Visibility: 4 mile(s):0
Sky conditions: mostly clear
Weather: light rain with thunder; Cumulonimbus clouds observed
Temperature: 78 F (26 C)
Dew Point: 71 F (22 C)
Relative Humidity: 78%
Pressure (altimeter): 29.83 in. Hg (1010 hPa)
ob: FCBB 291900Z 11005KT 080V140 7000 -TSRA FEW020 FEW027CB 26/22 Q1010 NOSIG
cycle: 19

Station Type Date Time Source
FCBB TAF 2020/03/29 18:12 UTC NOAA

TAF TAF FCBB 291700Z 2918/3024 24007KT 9999 TS FEW020 FEW027CB
BECMG 2921/2923 NSW FEW020
BECMG 3001/3003 BKN015 FEW026CB PROB30 3004/3006 -TSRA
BECMG 3007/3009 SCT016

Example: see airport list